Time;durP1;ratioP1;P1;durP2;ratioP2;P2;SDS_P1;SDS_P2;PMS_P1;PMS_P2;Temp;Humidity;BMP_temperature;BMP_pressure;BME280_temperature;BME280_humidity;BME280_pressure;Samples;Min_cycle;Max_cycle;Signal;HPM_P1;HPM_P2
2023/05/17 00:00:32;;;;;;;2.47;1.80;;;9.40;99.90;;;;;;5033701;28;20276;-71
2023/05/17 00:02:58;;;;;;;2.93;1.63;;;9.40;99.90;;;;;;5034996;28;20186;-71
2023/05/17 00:05:23;;;;;;;3.40;1.90;;;9.50;99.90;;;;;;5035087;28;20178;-70
2023/05/17 00:07:49;;;;;;;3.63;2.00;;;9.40;99.90;;;;;;5034901;28;20174;-70
2023/05/17 00:10:14;;;;;;;8.10;2.10;;;9.30;99.90;;;;;;5034676;28;20195;-70
2023/05/17 00:12:40;;;;;;;4.33;2.13;;;9.30;99.90;;;;;;5034313;28;20205;-69
2023/05/17 00:15:06;;;;;;;2.87;2.10;;;9.30;99.90;;;;;;5034617;28;20170;-70
2023/05/17 00:17:31;;;;;;;4.70;1.60;;;9.20;99.90;;;;;;5034820;28;20197;-69
2023/05/17 00:19:57;;;;;;;2.07;1.77;;;9.10;99.90;;;;;;5033905;28;20404;-69
2023/05/17 00:22:23;;;;;;;3.37;1.57;;;9.20;99.90;;;;;;5034773;28;20171;-69
2023/05/17 00:24:48;;;;;;;4.27;2.10;;;9.20;99.90;;;;;;5015837;28;20625;-70
2023/05/17 00:27:14;;;;;;;6.87;2.60;;;9.20;99.90;;;;;;5034515;28;20181;-70
2023/05/17 00:29:39;;;;;;;4.13;2.50;;;9.20;99.90;;;;;;5033918;28;20257;-70
2023/05/17 00:32:05;;;;;;;4.10;2.03;;;9.20;99.90;;;;;;5033949;28;20208;-69
2023/05/17 00:34:31;;;;;;;4.83;1.80;;;9.10;99.90;;;;;;5034048;28;20551;-69
2023/05/17 00:36:56;;;;;;;3.27;2.30;;;9.10;99.90;;;;;;5034060;28;20433;-70
2023/05/17 00:39:22;;;;;;;4.90;2.07;;;9.00;99.90;;;;;;5034528;28;20166;-70
2023/05/17 00:41:48;;;;;;;2.67;1.77;;;8.90;99.90;;;;;;5033872;28;20194;-69
2023/05/17 00:44:13;;;;;;;6.30;2.13;;;9.00;99.90;;;;;;5033695;28;20790;-69
2023/05/17 00:46:39;;;;;;;1.63;1.50;;;9.00;99.90;;;;;;5033824;28;20174;-69
2023/05/17 00:49:05;;;;;;;4.80;1.80;;;8.90;99.90;;;;;;5034234;28;20167;-69
2023/05/17 00:51:32;;;;;;;4.70;2.37;;;9.00;99.90;;;;;;5033424;28;20187;-69
2023/05/17 00:53:57;;;;;;;2.73;2.10;;;8.90;99.90;;;;;;5034026;28;20293;-70
2023/05/17 00:56:24;;;;;;;1.53;1.40;;;9.00;99.90;;;;;;5033592;28;20440;-70
2023/05/17 00:58:49;;;;;;;3.50;1.97;;;8.90;99.90;;;;;;5033479;28;20417;-70
2023/05/17 01:01:15;;;;;;;3.83;1.80;;;9.00;99.90;;;;;;5033850;28;20430;-70
2023/05/17 01:03:41;;;;;;;4.27;2.23;;;9.00;99.90;;;;;;5033614;28;20224;-70
2023/05/17 01:06:07;;;;;;;8.10;2.00;;;9.10;99.90;;;;;;5033418;28;20171;-70
2023/05/17 01:08:33;;;;;;;5.97;1.90;;;9.00;99.90;;;;;;5034033;28;20909;-70
2023/05/17 01:11:12;;;;;;;4.13;2.53;;;9.10;99.90;;;;;;5033651;28;20186;-70
2023/05/17 01:14:15;;;;;;;4.90;2.10;;;8.90;99.90;;;;;;5033295;28;20507;-70
2023/05/17 01:17:20;;;;;;;3.40;1.63;;;9.00;99.90;;;;;;5033353;28;20405;-70
2023/05/17 01:19:57;;;;;;;3.20;1.80;;;9.00;99.90;;;;;;5010110;28;20421;-70
2023/05/17 01:22:43;;;;;;;8.50;1.70;;;9.00;99.90;;;;;;5033793;28;20811;-70
2023/05/17 01:25:42;;;;;;;2.10;1.77;;;9.10;99.90;;;;;;5033349;28;20840;-70
2023/05/17 01:28:10;;;;;;;4.77;2.37;;;8.90;99.90;;;;;;5033034;28;20387;-70
2023/05/17 01:30:37;;;;;;;3.07;2.30;;;9.00;99.90;;;;;;5033306;28;20426;-69
2023/05/17 01:33:03;;;;;;;1.93;1.40;;;9.10;99.90;;;;;;5033054;28;20444;-70
2023/05/17 01:35:29;;;;;;;5.60;1.80;;;9.00;99.90;;;;;;5029877;28;20412;-69
2023/05/17 01:37:54;;;;;;;4.80;2.27;;;9.00;99.90;;;;;;5033083;28;20900;-70
2023/05/17 01:40:21;;;;;;;3.27;2.40;;;9.10;99.90;;;;;;5033307;28;20192;-70
2023/05/17 01:42:56;;;;;;;3.90;2.20;;;9.10;99.90;;;;;;5033280;28;20233;-70
2023/05/17 01:45:43;;;;;;;3.10;1.90;;;9.00;99.90;;;;;;5033399;28;20398;-70
2023/05/17 01:48:17;;;;;;;3.43;1.70;;;8.90;99.90;;;;;;5033438;28;20393;-70
2023/05/17 01:50:45;;;;;;;5.50;2.10;;;9.00;99.90;;;;;;5032836;28;20422;-71
2023/05/17 01:53:19;;;;;;;5.10;2.47;;;8.90;99.90;;;;;;5029791;28;20504;-70
2023/05/17 01:55:55;;;;;;;3.57;1.80;;;8.90;99.90;;;;;;5013710;28;20399;-69
2023/05/17 01:58:24;;;;;;;5.20;1.90;;;8.90;99.90;;;;;;5013538;28;20416;-70
2023/05/17 02:00:52;;;;;;;4.13;1.93;;;8.90;99.90;;;;;;5013884;28;20916;-70
2023/05/17 02:03:19;;;;;;;2.90;1.77;;;8.90;99.90;;;;;;5013854;28;20935;-70
2023/05/17 02:05:45;;;;;;;1.80;1.70;;;9.00;99.90;;;;;;5013126;28;20421;-70
2023/05/17 02:08:11;;;;;;;4.10;2.00;;;9.00;99.90;;;;;;5014118;28;20912;-70
2023/05/17 02:10:36;;;;;;;3.23;2.10;;;9.10;99.90;;;;;;5013936;28;20203;-69
2023/05/17 02:13:02;;;;;;;4.03;2.00;;;9.10;99.90;;;;;;5012962;28;20453;-68
2023/05/17 02:15:27;;;;;;;4.17;2.00;;;9.20;99.90;;;;;;5013436;28;20189;-70
2023/05/17 02:17:53;;;;;;;2.73;2.03;;;9.20;99.90;;;;;;5013037;28;20179;-69
2023/05/17 02:20:19;;;;;;;4.90;2.10;;;9.20;99.90;;;;;;5013039;28;20682;-70
2023/05/17 02:22:44;;;;;;;3.97;1.70;;;9.10;99.90;;;;;;5013412;28;20521;-70
2023/05/17 02:25:10;;;;;;;5.73;2.30;;;9.00;99.90;;;;;;5012957;28;20176;-70
2023/05/17 02:27:35;;;;;;;4.80;1.60;;;9.00;99.90;;;;;;5013265;28;20202;-70
2023/05/17 02:30:03;;;;;;;3.17;2.00;;;8.90;99.90;;;;;;5012799;28;20175;-69
2023/05/17 02:32:28;;;;;;;4.33;1.70;;;8.90;99.90;;;;;;5012715;28;20210;-68
2023/05/17 02:34:55;;;;;;;3.97;1.93;;;8.90;99.90;;;;;;5012848;28;20411;-70
2023/05/17 02:37:20;;;;;;;3.97;2.27;;;8.70;99.90;;;;;;5012670;28;20258;-70
2023/05/17 02:39:46;;;;;;;5.20;2.00;;;8.60;99.90;;;;;;5013366;28;20433;-70
2023/05/17 02:42:11;;;;;;;2.60;1.70;;;8.70;99.90;;;;;;5012675;28;20285;-70
2023/05/17 02:44:37;;;;;;;3.67;1.80;;;8.70;99.90;;;;;;5012748;28;20166;-69
2023/05/17 02:47:03;;;;;;;3.00;1.90;;;8.70;99.90;;;;;;5014128;28;20228;-69
2023/05/17 02:49:28;;;;;;;2.97;1.87;;;8.40;99.90;;;;;;5017025;28;20621;-69
2023/05/17 02:51:54;;;;;;;4.93;2.23;;;8.40;99.90;;;;;;5015941;28;20186;-70
2023/05/17 02:54:20;;;;;;;3.70;1.80;;;8.40;99.90;;;;;;5016199;28;20174;-70
2023/05/17 02:56:46;;;;;;;2.60;1.93;;;8.40;99.90;;;;;;5016456;28;20402;-70
2023/05/17 02:59:11;;;;;;;2.70;1.80;;;8.40;99.90;;;;;;5015922;28;20167;-70
2023/05/17 03:01:37;;;;;;;2.43;1.87;;;8.40;99.90;;;;;;5015976;28;20190;-70
2023/05/17 03:04:02;;;;;;;3.57;1.80;;;8.30;99.90;;;;;;5016066;28;20197;-70
2023/05/17 03:06:28;;;;;;;3.23;2.13;;;8.30;99.90;;;;;;5015974;28;20190;-69
2023/05/17 03:08:53;;;;;;;4.27;2.10;;;8.30;99.90;;;;;;5015973;28;20185;-69
2023/05/17 03:11:19;;;;;;;2.60;2.33;;;8.20;99.90;;;;;;5016037;28;20194;-69
2023/05/17 03:13:50;;;;;;;4.57;2.40;;;8.20;99.90;;;;;;4997971;28;20247;-70
2023/05/17 03:16:19;;;;;;;3.93;2.30;;;8.20;99.90;;;;;;5016161;28;20157;-69
2023/05/17 03:18:45;;;;;;;2.20;2.00;;;8.20;99.90;;;;;;5015766;28;20496;-69
2023/05/17 03:21:10;;;;;;;5.30;3.00;;;8.10;99.90;;;;;;5015240;28;20494;-70
2023/05/17 03:23:36;;;;;;;2.57;2.00;;;8.00;99.90;;;;;;5022126;28;20266;-69
2023/05/17 03:26:01;;;;;;;3.60;2.20;;;8.10;99.90;;;;;;5035695;28;20243;-70
2023/05/17 03:28:27;;;;;;;2.60;1.90;;;8.10;99.90;;;;;;5035079;28;20173;-70
2023/05/17 03:30:52;;;;;;;4.63;2.37;;;8.10;99.90;;;;;;5035225;28;20647;-69
2023/05/17 03:33:18;;;;;;;3.23;2.40;;;8.10;99.90;;;;;;5035296;28;20188;-70
2023/05/17 03:35:45;;;;;;;3.33;1.87;;;8.00;99.90;;;;;;5035124;28;20171;-69
2023/05/17 03:38:11;;;;;;;3.97;2.53;;;8.00;99.90;;;;;;5035414;28;20177;-69
2023/05/17 03:40:37;;;;;;;3.43;2.10;;;8.00;99.90;;;;;;5035030;28;20415;-69
2023/05/17 03:43:02;;;;;;;2.00;1.80;;;7.90;99.90;;;;;;5031673;28;20419;-70
2023/05/17 03:45:28;;;;;;;2.30;2.00;;;7.90;99.90;;;;;;5034535;28;20184;-70
2023/05/17 03:47:53;;;;;;;4.30;2.40;;;8.00;99.90;;;;;;5019841;28;20177;-70
2023/05/17 03:50:19;;;;;;;8.13;2.43;;;7.90;99.90;;;;;;5034493;28;20220;-69
2023/05/17 03:52:45;;;;;;;6.30;2.30;;;7.80;99.90;;;;;;5035140;28;20227;-70
2023/05/17 03:55:10;;;;;;;4.23;2.13;;;7.80;99.90;;;;;;5016072;28;20223;-70
2023/05/17 03:57:36;;;;;;;4.40;1.97;;;7.80;99.90;;;;;;5003696;28;20180;-70
2023/05/17 04:00:05;;;;;;;2.67;1.97;;;7.70;99.90;;;;;;5034235;28;20176;-70
2023/05/17 04:02:31;;;;;;;2.20;1.87;;;7.70;99.90;;;;;;5034713;28;20260;-70
2023/05/17 04:04:56;;;;;;;3.63;2.50;;;7.70;99.90;;;;;;5034854;28;20453;-70
2023/05/17 04:07:22;;;;;;;2.90;2.63;;;7.70;99.90;;;;;;5034608;28;20175;-70
2023/05/17 04:09:47;;;;;;;4.17;2.17;;;7.70;99.90;;;;;;5034971;28;20280;-71
2023/05/17 04:12:13;;;;;;;3.00;2.10;;;7.80;99.90;;;;;;5034402;28;20206;-69
2023/05/17 04:14:40;;;;;;;5.27;2.30;;;7.70;99.90;;;;;;5034304;28;20550;-69
2023/05/17 04:17:05;;;;;;;3.47;2.60;;;7.80;99.90;;;;;;5034499;28;20414;-70
2023/05/17 04:19:31;;;;;;;2.93;2.43;;;7.80;99.90;;;;;;5034435;28;20762;-69
2023/05/17 04:21:57;;;;;;;3.70;2.27;;;7.90;99.90;;;;;;5034382;23;20274;-67
2023/05/17 04:24:22;;;;;;;3.17;2.13;;;8.00;99.90;;;;;;5014122;28;20182;-67
2023/05/17 04:26:48;;;;;;;3.37;2.10;;;8.10;99.90;;;;;;5014150;28;20173;-67
2023/05/17 04:29:13;;;;;;;2.80;1.87;;;8.10;99.90;;;;;;5014064;28;20177;-67
2023/05/17 04:34:40;;;;;;;5.70;2.10;;;8.20;99.90;;;;;;5012072;28;20233;-67
2023/05/17 04:37:05;;;;;;;3.10;2.80;;;8.20;99.90;;;;;;5013723;28;20811;-67
2023/05/17 04:39:31;;;;;;;3.70;3.23;;;8.20;99.90;;;;;;5014656;28;20167;-67
2023/05/17 04:41:57;;;;;;;4.80;3.10;;;8.30;99.90;;;;;;5014215;28;20182;-67
2023/05/17 04:44:22;;;;;;;7.80;4.53;;;8.40;99.90;;;;;;5013765;28;20600;-68
2023/05/17 04:46:48;;;;;;;6.20;5.00;;;8.40;99.90;;;;;;5013593;28;20174;-68
2023/05/17 04:49:13;;;;;;;8.53;4.17;;;8.40;99.90;;;;;;5012307;28;20185;-68
2023/05/17 04:51:39;;;;;;;7.70;3.30;;;8.50;99.90;;;;;;5013230;28;20257;-67
2023/05/17 04:54:07;;;;;;;6.90;5.03;;;8.50;99.90;;;;;;5012778;28;20328;-67
2023/05/17 04:56:33;;;;;;;5.90;3.40;;;8.50;99.90;;;;;;5013537;28;20699;-67
2023/05/17 04:58:59;;;;;;;5.00;3.80;;;8.70;99.90;;;;;;5013405;28;20412;-67
2023/05/17 05:01:25;;;;;;;6.10;3.80;;;8.70;99.90;;;;;;5013367;28;20426;-67
2023/05/17 05:03:51;;;;;;;4.37;3.57;;;8.80;99.90;;;;;;5013554;28;20185;-67
2023/05/17 05:06:16;;;;;;;6.83;2.80;;;8.80;99.90;;;;;;5012058;28;20414;-67
2023/05/17 05:08:42;;;;;;;4.30;3.00;;;8.90;99.90;;;;;;5012975;28;20181;-67
2023/05/17 05:11:07;;;;;;;3.60;2.60;;;8.90;99.90;;;;;;5012941;28;20619;-67
2023/05/17 05:13:33;;;;;;;2.53;2.30;;;9.10;99.90;;;;;;5013212;28;20701;-67
2023/05/17 05:15:58;;;;;;;3.10;2.43;;;9.20;99.90;;;;;;5012863;28;20661;-68
2023/05/17 05:18:24;;;;;;;5.97;2.93;;;9.30;99.90;;;;;;5013067;28;20254;-67
2023/05/17 05:20:50;;;;;;;6.60;2.40;;;9.40;99.90;;;;;;5012828;28;20211;-67
2023/05/17 05:23:17;;;;;;;5.93;2.60;;;9.60;99.90;;;;;;5012878;28;20174;-67
2023/05/17 05:25:43;;;;;;;5.20;2.57;;;9.50;99.90;;;;;;5012566;28;20258;-67
2023/05/17 05:28:08;;;;;;;5.27;3.60;;;9.60;99.90;;;;;;5013074;28;20514;-67
2023/05/17 05:30:34;;;;;;;6.10;5.50;;;9.60;99.90;;;;;;5012732;28;20590;-68
2023/05/17 05:32:59;;;;;;;5.23;3.53;;;9.80;99.90;;;;;;5012951;28;20696;-67
2023/05/17 05:35:28;;;;;;;5.97;2.40;;;9.90;99.90;;;;;;5012889;28;20179;-67
2023/05/17 05:37:55;;;;;;;2.83;2.27;;;9.80;99.90;;;;;;5013985;28;20213;-67
2023/05/17 05:40:21;;;;;;;7.30;6.70;;;9.50;99.90;;;;;;5012143;28;20404;-67
2023/05/17 05:42:47;;;;;;;5.40;2.20;;;9.50;99.90;;;;;;5012705;28;20808;-67
2023/05/17 05:45:12;;;;;;;9.73;5.27;;;9.50;99.90;;;;;;5012527;28;20179;-68
2023/05/17 05:47:38;;;;;;;5.13;2.37;;;9.70;99.90;;;;;;5002892;28;20187;-67
2023/05/17 05:50:05;;;;;;;5.07;2.37;;;9.80;99.90;;;;;;5004652;28;20773;-67
2023/05/17 05:52:31;;;;;;;7.27;3.00;;;9.90;99.90;;;;;;5012334;28;20204;-67
2023/05/17 05:54:56;;;;;;;5.37;2.50;;;9.90;99.90;;;;;;5012806;28;20897;-67
2023/05/17 05:57:22;;;;;;;4.60;2.60;;;9.80;99.90;;;;;;5012504;28;20172;-67
2023/05/17 05:59:47;;;;;;;5.97;2.33;;;9.80;99.90;;;;;;5012507;28;20251;-68
2023/05/17 06:02:13;;;;;;;13.40;5.13;;;9.90;99.90;;;;;;5012870;28;20200;-67
2023/05/17 06:04:38;;;;;;;6.27;2.90;;;10.20;99.90;;;;;;5012879;28;20277;-67
2023/05/17 06:07:04;;;;;;;5.30;3.00;;;10.30;99.90;;;;;;5012732;28;20173;-67
2023/05/17 06:09:30;;;;;;;7.50;3.20;;;10.20;99.90;;;;;;5013209;28;20203;-68
2023/05/17 06:11:55;;;;;;;5.00;2.47;;;10.20;99.90;;;;;;5012482;28;20358;-68
2023/05/17 06:14:21;;;;;;;3.90;2.30;;;10.10;99.90;;;;;;5011807;28;20209;-68
2023/05/17 06:16:47;;;;;;;5.33;2.50;;;10.00;99.90;;;;;;5012679;28;20202;-68
2023/05/17 06:19:13;;;;;;;7.10;2.83;;;9.80;99.90;;;;;;5006778;28;20265;-68
2023/05/17 06:21:39;;;;;;;6.13;2.90;;;9.90;99.90;;;;;;4993486;28;20549;-68
2023/05/17 06:24:05;;;;;;;6.13;2.30;;;10.00;99.90;;;;;;5000766;28;20438;-68
2023/05/17 06:26:30;;;;;;;6.43;3.30;;;9.80;99.90;;;;;;5016344;28;20172;-71
2023/05/17 06:28:56;;;;;;;4.80;2.77;;;9.90;99.90;;;;;;5014472;28;20492;-67
2023/05/17 06:31:21;;;;;;;3.63;2.80;;;9.90;99.90;;;;;;5015997;28;20271;-67
2023/05/17 06:33:47;;;;;;;5.83;2.80;;;9.90;99.90;;;;;;5013933;28;20219;-67
2023/05/17 06:36:13;;;;;;;5.17;2.80;;;10.00;99.90;;;;;;5015661;28;20179;-67
2023/05/17 06:38:38;;;;;;;5.40;2.77;;;10.30;99.90;;;;;;5016164;28;20306;-69
2023/05/17 06:41:04;;;;;;;3.33;2.70;;;10.50;99.90;;;;;;5015796;28;20924;-68
2023/05/17 06:43:30;;;;;;;3.10;2.30;;;10.70;99.90;;;;;;5015967;28;20558;-68
2023/05/17 06:45:56;;;;;;;4.47;2.80;;;10.80;99.90;;;;;;5015907;28;20542;-69
2023/05/17 06:48:21;;;;;;;5.10;3.10;;;10.80;99.90;;;;;;5015731;28;20271;-68
2023/05/17 06:50:47;;;;;;;6.33;2.90;;;10.80;99.90;;;;;;5015380;28;20216;-70
2023/05/17 06:53:13;;;;;;;6.67;3.17;;;11.00;99.90;;;;;;5015845;28;20559;-71
2023/05/17 06:55:40;;;;;;;5.73;3.47;;;11.00;99.90;;;;;;5014081;28;20252;-71
2023/05/17 06:58:05;;;;;;;3.73;2.63;;;10.70;99.90;;;;;;5015725;28;20165;-70
2023/05/17 07:00:31;;;;;;;4.90;2.30;;;11.00;99.90;;;;;;5015901;28;20428;-68
2023/05/17 07:02:56;;;;;;;9.30;4.03;;;10.80;99.90;;;;;;5015453;28;20206;-68
2023/05/17 07:05:26;;;;;;;8.23;3.33;;;10.60;99.90;;;;;;5013778;28;20164;-67
2023/05/17 07:07:52;;;;;;;6.40;3.03;;;10.70;99.90;;;;;;5015564;28;20226;-69
2023/05/17 07:10:18;;;;;;;6.37;3.40;;;10.60;99.90;;;;;;5015273;28;20789;-69
2023/05/17 07:12:43;;;;;;;8.43;3.20;;;10.30;99.90;;;;;;5015604;28;20204;-69
2023/05/17 07:15:09;;;;;;;6.97;3.20;;;10.20;99.90;;;;;;5015141;28;20173;-69
2023/05/17 07:17:36;;;;;;;5.67;3.50;;;10.30;99.90;;;;;;5013952;28;20182;-69
2023/05/17 07:20:02;;;;;;;4.03;3.00;;;10.50;99.90;;;;;;5014951;28;20407;-68
2023/05/17 07:22:27;;;;;;;6.20;3.77;;;10.70;99.90;;;;;;5014883;28;20467;-68
2023/05/17 07:24:53;;;;;;;6.00;3.40;;;10.80;99.90;;;;;;5013846;28;20946;-68
2023/05/17 07:27:19;;;;;;;7.97;3.40;;;11.10;99.90;;;;;;5014197;28;20527;-69
2023/05/17 07:29:45;;;;;;;6.00;3.33;;;11.50;99.90;;;;;;5014999;28;20666;-68
2023/05/17 07:32:10;;;;;;;7.30;3.23;;;11.60;99.90;;;;;;5015193;28;20950;-67
2023/05/17 07:34:36;;;;;;;5.43;3.67;;;11.30;99.90;;;;;;5015040;28;21091;-68
2023/05/17 07:37:01;;;;;;;9.40;3.43;;;11.30;99.90;;;;;;5014907;28;20249;-69
2023/05/17 07:39:27;;;;;;;6.10;3.17;;;11.30;99.90;;;;;;5015085;28;20168;-70
2023/05/17 07:41:53;;;;;;;6.28;3.35;;;11.40;99.90;;;;;;5014514;28;20411;-70
2023/05/17 07:44:20;;;;;;;6.47;3.37;;;11.40;99.90;;;;;;5014446;28;20208;-70
2023/05/17 07:46:46;;;;;;;5.03;3.67;;;11.30;99.90;;;;;;5014441;28;20687;-69
2023/05/17 07:49:12;;;;;;;9.20;4.40;;;11.30;99.90;;;;;;5012744;28;20419;-68
2023/05/17 07:51:38;;;;;;;8.40;4.03;;;11.30;99.90;;;;;;5011822;28;20192;-68
2023/05/17 07:54:04;;;;;;;5.53;4.10;;;11.40;99.90;;;;;;5003856;28;20508;-69
2023/05/17 07:56:29;;;;;;;5.30;3.53;;;11.60;99.90;;;;;;4993863;28;20172;-71
2023/05/17 07:58:55;;;;;;;8.73;3.50;;;11.90;99.90;;;;;;4994933;28;20176;-71
2023/05/17 08:01:22;;;;;;;6.70;3.10;;;11.70;99.90;;;;;;4994538;28;20735;-70
2023/05/17 08:03:48;;;;;;;6.00;3.90;;;11.50;99.90;;;;;;4993589;28;20172;-70
2023/05/17 08:06:15;;;;;;;8.20;3.73;;;11.70;99.90;;;;;;4994667;28;20984;-71
2023/05/17 08:08:41;;;;;;;5.47;3.93;;;12.10;99.90;;;;;;4995094;28;20165;-71
2023/05/17 08:11:08;;;;;;;5.27;3.77;;;12.20;99.90;;;;;;4993431;28;20433;-70
2023/05/17 08:13:33;;;;;;;7.50;3.83;;;12.20;99.90;;;;;;4994831;28;20506;-70
2023/05/17 08:16:02;;;;;;;6.90;3.60;;;12.30;99.90;;;;;;4994636;28;20413;-68
2023/05/17 08:18:31;;;;;;;4.73;3.50;;;12.50;99.90;;;;;;4994810;28;20216;-69
2023/05/17 08:20:57;;;;;;;6.40;3.63;;;12.40;99.90;;;;;;4994085;28;20819;-69
2023/05/17 08:23:22;;;;;;;4.60;3.80;;;12.50;99.90;;;;;;4994652;28;20419;-69
2023/05/17 08:25:48;;;;;;;3.70;3.20;;;12.80;99.90;;;;;;4994565;28;20257;-68
2023/05/17 08:28:13;;;;;;;6.40;3.27;;;12.90;99.90;;;;;;4994553;28;20172;-68
2023/05/17 08:30:40;;;;;;;5.63;3.80;;;13.10;99.90;;;;;;4994022;28;20180;-68
2023/05/17 08:33:05;;;;;;;4.90;3.50;;;13.40;99.90;;;;;;4992965;28;20218;-69
2023/05/17 08:35:31;;;;;;;6.63;4.27;;;13.20;99.90;;;;;;4993981;28;20926;-69
2023/05/17 08:37:56;;;;;;;6.03;3.53;;;13.40;99.90;;;;;;4994497;28;20172;-70
2023/05/17 08:40:22;;;;;;;6.00;4.10;;;13.60;99.90;;;;;;4994646;28;20216;-69
2023/05/17 08:42:51;;;;;;;5.90;3.63;;;13.50;99.90;;;;;;4994240;28;20180;-69
2023/05/17 08:45:17;;;;;;;6.00;4.07;;;13.10;99.90;;;;;;4993398;28;20179;-69
2023/05/17 08:47:45;;;;;;;5.73;3.70;;;13.40;99.90;;;;;;4994148;28;20491;-69
2023/05/17 08:50:11;;;;;;;5.10;3.70;;;13.50;99.90;;;;;;4992395;28;20565;-69
2023/05/17 08:52:39;;;;;;;4.03;3.63;;;13.20;99.90;;;;;;4994263;28;20458;-69
2023/05/17 08:55:07;;;;;;;6.23;3.70;;;13.40;99.90;;;;;;5010328;28;20414;-69
2023/05/17 08:57:36;;;;;;;6.53;4.60;;;13.60;99.90;;;;;;5013641;28;20408;-70
2023/05/17 09:00:11;;;;;;;6.80;4.30;;;13.50;99.90;;;;;;5013304;28;20398;-69
2023/05/17 09:02:37;;;;;;;5.90;4.43;;;13.70;99.90;;;;;;5013150;28;20430;-69
2023/05/17 09:05:05;;;;;;;4.87;4.10;;;14.10;99.90;;;;;;5013902;28;20990;-69
2023/05/17 09:07:31;;;;;;;8.03;4.47;;;14.60;99.90;;;;;;5013194;28;20783;-69
2023/05/17 09:09:57;;;;;;;7.90;4.03;;;14.00;99.90;;;;;;5013163;28;20429;-69
2023/05/17 09:12:22;;;;;;;5.80;4.50;;;13.50;99.90;;;;;;5011612;28;20924;-70
2023/05/17 09:14:48;;;;;;;5.20;3.40;;;13.60;99.90;;;;;;5012975;28;20200;-71
2023/05/17 09:17:17;;;;;;;5.40;4.00;;;13.60;99.90;;;;;;5011638;28;20179;-69
2023/05/17 09:19:44;;;;;;;10.53;5.13;;;13.80;99.90;;;;;;5012769;28;20438;-70
2023/05/17 09:22:13;;;;;;;5.73;4.00;;;13.60;99.90;;;;;;5012781;28;20962;-71
2023/05/17 09:24:40;;;;;;;9.20;4.20;;;13.10;99.90;;;;;;5012854;28;20423;-68
2023/05/17 09:27:06;;;;;;;6.50;4.30;;;13.20;99.90;;;;;;5013297;28;20747;-69
2023/05/17 09:29:31;;;;;;;7.00;3.57;;;13.70;99.90;;;;;;5012619;28;20445;-70
2023/05/17 09:32:11;;;;;;;6.27;3.80;;;14.10;99.90;;;;;;5013260;28;20195;-70
2023/05/17 09:34:39;;;;;;;4.90;4.00;;;14.30;99.90;;;;;;5012816;28;20247;-70
2023/05/17 09:37:05;;;;;;;4.90;3.77;;;14.20;99.90;;;;;;5012969;28;20394;-69
2023/05/17 09:39:31;;;;;;;7.30;3.77;;;14.20;99.90;;;;;;5012868;28;20528;-70
2023/05/17 09:41:57;;;;;;;5.33;3.83;;;14.20;99.90;;;;;;5012672;28;20187;-69
2023/05/17 09:44:24;;;;;;;6.40;3.87;;;14.20;99.90;;;;;;5009535;28;20409;-69
2023/05/17 09:46:50;;;;;;;5.70;3.50;;;14.20;99.90;;;;;;5012413;28;20167;-70
2023/05/17 09:49:16;;;;;;;5.10;3.70;;;14.40;99.90;;;;;;5011986;28;20564;-69
2023/05/17 09:51:43;;;;;;;6.60;3.57;;;14.20;99.90;;;;;;5012372;28;20420;-70
2023/05/17 09:54:09;;;;;;;5.57;3.97;;;13.80;99.90;;;;;;5003609;28;20465;-68
2023/05/17 09:56:35;;;;;;;5.27;4.23;;;13.80;99.90;;;;;;4993803;28;20397;-68
2023/05/17 09:59:02;;;;;;;4.13;3.40;;;14.10;99.90;;;;;;4997318;28;20769;-68
2023/05/17 10:01:29;;;;;;;5.73;3.50;;;14.00;99.90;;;;;;4996770;28;20918;-71
2023/05/17 10:04:02;;;;;;;5.67;3.67;;;14.30;99.90;;;;;;4996798;28;20461;-68
2023/05/17 10:06:30;;;;;;;5.90;3.07;;;14.70;99.90;;;;;;4996791;28;20391;-69
2023/05/17 10:08:57;;;;;;;4.30;2.93;;;15.00;99.90;;;;;;4996946;28;20781;-70
2023/05/17 10:11:27;;;;;;;4.67;3.87;;;15.00;99.90;;;;;;4997216;28;20440;-70
2023/05/17 10:14:17;;;;;;;5.00;3.47;;;15.20;99.00;;;;;;4996850;28;20450;-70
2023/05/17 10:16:43;;;;;;;4.27;3.00;;;15.20;97.60;;;;;;4996581;28;20890;-71
2023/05/17 10:19:10;;;;;;;6.97;3.30;;;14.60;97.60;;;;;;4995588;28;20490;-72
2023/05/17 10:21:38;;;;;;;5.40;3.50;;;14.40;98.60;;;;;;5029498;23;20512;-72
2023/05/17 10:24:05;;;;;;;5.83;3.90;;;14.80;99.50;;;;;;5019412;28;20433;-72
2023/05/17 10:26:31;;;;;;;4.20;3.43;;;14.80;98.20;;;;;;5037334;28;20503;-73
2023/05/17 10:29:01;;;;;;;7.13;3.60;;;14.50;98.50;;;;;;5036537;28;20487;-70
2023/05/17 10:31:29;;;;;;;4.50;3.20;;;14.70;98.90;;;;;;5036500;28;20865;-70
2023/05/17 10:33:55;;;;;;;5.10;3.37;;;14.80;98.50;;;;;;5036205;28;20445;-71
2023/05/17 10:36:23;;;;;;;5.47;3.60;;;14.80;99.00;;;;;;5036088;28;20403;-70
2023/05/17 10:38:49;;;;;;;9.10;4.07;;;15.10;99.20;;;;;;5036225;28;20416;-70
2023/05/17 10:41:17;;;;;;;5.97;4.13;;;15.30;98.90;;;;;;5035941;28;20538;-71
2023/05/17 10:43:43;;;;;;;5.23;3.63;;;15.10;97.80;;;;;;5036320;28;20895;-71
2023/05/17 10:46:20;;;;;;;4.20;3.13;;;15.10;98.10;;;;;;5036022;28;20914;-70
2023/05/17 10:48:49;;;;;;;6.90;4.07;;;15.50;97.80;;;;;;5036223;28;20399;-71
2023/05/17 10:51:17;;;;;;;5.63;3.93;;;15.80;97.60;;;;;;5035729;28;20436;-71
2023/05/17 10:54:12;;;;;;;6.40;4.03;;;15.80;97.20;;;;;;5036222;28;20448;-71
2023/05/17 10:56:46;;;;;;;6.90;3.67;;;15.80;97.40;;;;;;5035742;28;20897;-71
2023/05/17 10:59:20;;;;;;;7.43;3.70;;;16.00;97.00;;;;;;5036119;28;20780;-71
2023/05/17 11:02:08;;;;;;;4.60;3.30;;;16.00;96.20;;;;;;5035547;28;20788;-71
2023/05/17 11:04:37;;;;;;;5.47;3.53;;;16.00;96.90;;;;;;5036027;28;20394;-71
2023/05/17 11:07:21;;;;;;;6.17;3.57;;;16.00;97.40;;;;;;5035066;28;20404;-70
2023/05/17 11:09:54;;;;;;;5.60;3.63;;;15.80;98.20;;;;;;5035843;28;20812;-71
2023/05/17 11:12:46;;;;;;;6.43;3.40;;;15.90;96.70;;;;;;5018120;28;20433;-71
2023/05/17 11:15:13;;;;;;;5.27;3.70;;;15.70;97.00;;;;;;5035607;28;20896;-70
2023/05/17 11:17:42;;;;;;;6.67;4.30;;;15.60;97.10;;;;;;5035857;28;20409;-71
2023/05/17 11:20:28;;;;;;;6.87;4.27;;;15.70;97.80;;;;;;5035550;28;20417;-71
2023/05/17 11:22:57;;;;;;;4.83;3.83;;;16.00;97.40;;;;;;5035368;28;20445;-71
2023/05/17 11:25:26;;;;;;;6.83;3.97;;;15.30;97.10;;;;;;5035335;28;20940;-70
2023/05/17 11:27:51;;;;;;;6.63;4.10;;;15.00;98.10;;;;;;5035641;28;20492;-70
2023/05/17 11:30:23;;;;;;;6.10;4.17;;;14.80;98.20;;;;;;5035448;28;20508;-70
2023/05/17 11:32:50;;;;;;;6.77;4.10;;;14.80;98.50;;;;;;5035113;28;20206;-70
2023/05/17 11:35:22;;;;;;;6.00;4.40;;;15.00;98.90;;;;;;5034856;28;20491;-71
2023/05/17 11:37:52;;;;;;;5.83;4.50;;;15.10;99.30;;;;;;5035095;28;20405;-72
2023/05/17 11:40:26;;;;;;;7.53;3.33;;;14.70;99.10;;;;;;5035037;28;20492;-70
2023/05/17 11:43:12;;;;;;;6.23;4.40;;;14.40;99.90;;;;;;5031487;28;20444;-70
2023/05/17 11:46:00;;;;;;;6.50;4.27;;;14.40;99.90;;;;;;5034897;28;20391;-71
2023/05/17 11:48:26;;;;;;;4.80;3.53;;;14.30;99.90;;;;;;5035265;28;20424;-70
2023/05/17 11:50:54;;;;;;;9.10;4.30;;;14.40;99.90;;;;;;5034390;28;20416;-72
2023/05/17 11:53:20;;;;;;;6.47;3.93;;;14.30;99.90;;;;;;5034369;28;20460;-72
2023/05/17 11:55:49;;;;;;;3.97;3.43;;;14.30;99.90;;;;;;5034433;28;20596;-73
2023/05/17 11:58:20;;;;;;;5.33;3.13;;;14.30;99.90;;;;;;5033504;28;20425;-72
2023/05/17 12:00:53;;;;;;;7.17;3.70;;;14.00;99.90;;;;;;5034434;28;20916;-73
2023/05/17 12:03:23;;;;;;;5.27;3.20;;;14.10;99.90;;;;;;5035372;28;20389;-72
2023/05/17 12:05:59;;;;;;;3.93;3.17;;;14.00;99.90;;;;;;5034572;28;20537;-72
2023/05/17 12:08:25;;;;;;;6.83;3.67;;;14.40;99.90;;;;;;5034817;28;20409;-71
2023/05/17 12:10:51;;;;;;;3.67;3.20;;;14.70;99.70;;;;;;5034330;28;20427;-72
2023/05/17 12:13:18;;;;;;;5.77;3.80;;;14.50;99.70;;;;;;5034611;28;20202;-71
2023/05/17 12:15:49;;;;;;;6.43;3.30;;;14.70;99.40;;;;;;5034279;28;20421;-70
2023/05/17 12:18:15;;;;;;;6.83;3.50;;;14.90;99.20;;;;;;5034587;28;20749;-71
2023/05/17 12:20:57;;;;;;;6.23;3.50;;;15.20;98.40;;;;;;5033155;28;20420;-71
2023/05/17 12:23:28;;;;;;;5.63;3.40;;;15.50;99.00;;;;;;5031569;28;20429;-71
2023/05/17 12:26:07;;;;;;;7.40;3.93;;;15.80;97.60;;;;;;5014895;28;20827;-72
2023/05/17 12:28:35;;;;;;;4.47;3.40;;;15.90;97.20;;;;;;5014214;28;20915;-74
2023/05/17 12:31:02;;;;;;;7.37;3.53;;;16.20;97.00;;;;;;5014404;28;20399;-73
2023/05/17 12:33:33;;;;;;;5.80;3.40;;;16.60;96.10;;;;;;5014005;28;20475;-74
2023/05/17 12:36:01;;;;;;;5.73;3.93;;;16.40;96.30;;;;;;5014155;28;20403;-74
2023/05/17 12:38:31;;;;;;;7.43;3.87;;;16.30;95.50;;;;;;5014127;28;20416;-74
2023/05/17 12:40:58;;;;;;;6.90;3.67;;;16.20;96.10;;;;;;5014359;28;20445;-73
2023/05/17 12:43:23;;;;;;;3.80;3.20;;;16.10;96.70;;;;;;5014434;28;20414;-74
2023/05/17 12:45:51;;;;;;;7.00;3.77;;;16.70;96.40;;;;;;5014114;28;20470;-73
2023/05/17 12:48:16;;;;;;;5.10;3.13;;;17.00;97.30;;;;;;5014324;28;20183;-73
2023/05/17 12:50:46;;;;;;;5.80;4.10;;;17.30;95.70;;;;;;5013692;28;20411;-73
2023/05/17 12:53:11;;;;;;;7.00;4.20;;;17.10;95.70;;;;;;5015193;28;20558;-73
2023/05/17 12:55:37;;;;;;;6.00;3.70;;;16.40;96.20;;;;;;5034195;28;20424;-72
2023/05/17 12:58:06;;;;;;;6.23;4.13;;;16.10;97.10;;;;;;5033668;28;20641;-73